createdAt,value
2022-12-18T00:00:08.990Z,-7.23
2022-12-18T00:02:41.480Z,-7.27
2022-12-18T00:05:09.720Z,-7.46
2022-12-18T00:07:37.123Z,-7.45
2022-12-18T00:10:05.990Z,-7.37
2022-12-18T00:12:32.793Z,-7.29
2022-12-18T00:14:59.682Z,-7.17
2022-12-18T00:17:27.876Z,-7.14
2022-12-18T00:19:55.061Z,-7.15
2022-12-18T00:22:22.102Z,-7.12
2022-12-18T00:24:48.935Z,-7.10
2022-12-18T00:27:15.757Z,-7.10
2022-12-18T00:29:42.846Z,-7.24
2022-12-18T00:32:09.613Z,-7.24
2022-12-18T00:34:38.126Z,-7.20
2022-12-18T00:37:05.338Z,-7.23
2022-12-18T00:39:32.167Z,-7.38
2022-12-18T00:41:59.890Z,-7.63
2022-12-18T00:44:26.810Z,-7.67
2022-12-18T00:46:53.958Z,-7.75
2022-12-18T00:49:21.662Z,-7.79
2022-12-18T00:51:49.950Z,-7.62
2022-12-18T00:54:17.700Z,-7.61
2022-12-18T00:56:49.353Z,-7.53
2022-12-18T00:59:18.638Z,-7.49
2022-12-18T01:01:46.716Z,-7.48
2022-12-18T01:04:14.764Z,-7.40
2022-12-18T01:06:43.324Z,-7.34
2022-12-18T01:09:12.981Z,-7.39
2022-12-18T01:11:40.436Z,-7.44
2022-12-18T01:14:07.374Z,-7.50
2022-12-18T01:16:34.591Z,-7.53
2022-12-18T01:19:01.387Z,-7.59
2022-12-18T01:21:28.742Z,-7.63
2022-12-18T01:23:57.744Z,-7.62
2022-12-18T01:26:26.859Z,-7.56
2022-12-18T01:28:55.387Z,-7.49
2022-12-18T01:31:27.671Z,-7.50
2022-12-18T01:33:56.238Z,-7.47
2022-12-18T01:36:26.189Z,-7.51
2022-12-18T01:38:54.245Z,-7.65
2022-12-18T01:41:25.323Z,-7.78
2022-12-18T01:43:57.041Z,-7.71
2022-12-18T01:46:28.330Z,-7.87
2022-12-18T01:49:00.845Z,-7.92
2022-12-18T01:51:29.393Z,-7.75
2022-12-18T01:53:58.280Z,-7.62
2022-12-18T01:56:25.201Z,-7.51
2022-12-18T01:59:03.124Z,-7.42
2022-12-18T02:01:33.862Z,-7.36
2022-12-18T02:04:21.811Z,-7.31
2022-12-18T02:06:58.180Z,-7.30
2022-12-18T02:09:36.739Z,-7.37
2022-12-18T02:12:14.536Z,-7.42
2022-12-18T02:14:52.255Z,-7.38
2022-12-18T02:17:23.224Z,-7.37
2022-12-18T02:20:13.937Z,-7.62
2022-12-18T02:23:01.766Z,-7.66
2022-12-18T02:26:01.254Z,-7.92
2022-12-18T02:28:37.145Z,-8.08
2022-12-18T02:31:15.304Z,-7.91
2022-12-18T02:33:45.710Z,-7.82
2022-12-18T02:36:17.177Z,-7.67
2022-12-18T02:38:47.648Z,-7.58
2022-12-18T02:41:19.697Z,-7.55
2022-12-18T02:43:57.918Z,-7.54
2022-12-18T02:46:33.180Z,-7.56
2022-12-18T02:49:16.996Z,-7.48
2022-12-18T02:51:56.605Z,-7.45
2022-12-18T02:54:46.053Z,-7.42
2022-12-18T02:57:24.989Z,-7.53
2022-12-18T03:00:02.551Z,-7.55
2022-12-18T03:02:40.496Z,-7.49
2022-12-18T03:05:17.310Z,-7.58
2022-12-18T03:07:56.229Z,-7.96
2022-12-18T03:10:30.770Z,-7.96
2022-12-18T03:13:09.506Z,-7.93
2022-12-18T03:15:43.378Z,-7.93
2022-12-18T03:18:20.678Z,-7.84
2022-12-18T03:20:52.851Z,-7.70
2022-12-18T03:23:29.307Z,-7.59
2022-12-18T03:26:07.690Z,-7.54
2022-12-18T03:28:48.213Z,-7.74
2022-12-18T03:31:17.356Z,-7.81
2022-12-18T03:33:52.977Z,-7.94
2022-12-18T03:36:26.045Z,-8.24
2022-12-18T03:38:53.689Z,-8.37
2022-12-18T03:41:33.592Z,-8.27
2022-12-18T03:44:30.926Z,-8.24
2022-12-18T03:47:11.019Z,-8.32
2022-12-18T03:49:48.833Z,-8.26
2022-12-18T03:52:28.669Z,-8.14
2022-12-18T03:55:01.028Z,-8.00
2022-12-18T03:57:33.379Z,-8.00
2022-12-18T04:00:12.538Z,-8.01
2022-12-18T04:02:57.975Z,-7.89
2022-12-18T04:05:38.180Z,-7.81
2022-12-18T04:08:06.477Z,-7.83
2022-12-18T04:10:38.064Z,-7.85
2022-12-18T04:13:05.435Z,-7.87
2022-12-18T04:15:37.720Z,-7.92
2022-12-18T04:18:08.752Z,-7.94
2022-12-18T04:20:42.049Z,-7.91
2022-12-18T04:23:09.410Z,-7.89
2022-12-18T04:25:38.468Z,-7.90
2022-12-18T04:28:09.649Z,-7.90
2022-12-18T04:30:39.827Z,-7.81
2022-12-18T04:33:13.078Z,-7.77
2022-12-18T04:35:40.760Z,-7.80
2022-12-18T04:38:09.193Z,-7.92
2022-12-18T04:40:36.613Z,-7.81
2022-12-18T04:43:06.634Z,-7.78
2022-12-18T04:45:34.448Z,-7.67
2022-12-18T04:48:03.491Z,-7.54
2022-12-18T04:50:31.204Z,-7.51
2022-12-18T04:52:58.504Z,-7.49
2022-12-18T04:55:25.433Z,-7.53
2022-12-18T04:57:52.423Z,-7.62
2022-12-18T05:00:19.852Z,-7.72
2022-12-18T05:02:46.959Z,-7.76
2022-12-18T05:05:15.432Z,-7.90
2022-12-18T05:07:42.249Z,-7.83
2022-12-18T05:10:10.434Z,-7.80
2022-12-18T05:12:37.333Z,-7.79
2022-12-18T05:15:05.531Z,-7.85
2022-12-18T05:17:32.670Z,-7.91
2022-12-18T05:19:59.409Z,-7.93
2022-12-18T05:22:27.763Z,-7.96
2022-12-18T05:24:54.621Z,-8.02
2022-12-18T05:27:21.652Z,-7.91
2022-12-18T05:29:48.412Z,-7.87
2022-12-18T05:32:16.195Z,-7.81
2022-12-18T05:34:42.968Z,-7.79
2022-12-18T05:37:10.021Z,-7.75
2022-12-18T05:39:38.078Z,-7.71
2022-12-18T05:42:05.184Z,-7.64
2022-12-18T05:44:33.168Z,-7.56
2022-12-18T05:46:59.928Z,-7.62
2022-12-18T05:49:27.522Z,-7.54
2022-12-18T05:51:54.327Z,-7.54
2022-12-18T05:54:21.226Z,-7.63
2022-12-18T05:56:49.523Z,-7.68
2022-12-18T05:59:16.380Z,-7.68
2022-12-18T06:01:43.304Z,-7.92
2022-12-18T06:04:10.135Z,-8.27
2022-12-18T06:06:37.060Z,-8.39
2022-12-18T06:09:04.667Z,-8.53
2022-12-18T06:11:31.888Z,-8.38
2022-12-18T06:14:00.833Z,-8.23
2022-12-18T06:16:29.238Z,-8.09
2022-12-18T06:18:57.858Z,-7.75
2022-12-18T06:21:24.749Z,-7.61
2022-12-18T06:23:51.767Z,-7.53
2022-12-18T06:26:21.079Z,-7.44
2022-12-18T06:28:51.530Z,-7.37
2022-12-18T06:31:19.651Z,-7.44
2022-12-18T06:33:46.694Z,-7.47
2022-12-18T06:36:14.537Z,-7.47
2022-12-18T06:38:43.898Z,-7.42
2022-12-18T06:41:14.012Z,-7.48
2022-12-18T06:43:41.226Z,-7.48
2022-12-18T06:46:10.348Z,-7.70
2022-12-18T06:48:39.049Z,-7.72
2022-12-18T06:51:06.131Z,-7.67
2022-12-18T06:53:34.634Z,-7.68
2022-12-18T06:56:07.861Z,-7.74
2022-12-18T06:58:36.914Z,-7.63
2022-12-18T07:01:07.137Z,-7.55
2022-12-18T07:03:34.091Z,-7.51
2022-12-18T07:06:03.016Z,-7.48
2022-12-18T07:08:30.287Z,-7.46
2022-12-18T07:10:57.248Z,-7.47
2022-12-18T07:13:24.391Z,-7.69
2022-12-18T07:15:51.473Z,-7.59
2022-12-18T07:18:18.281Z,-7.56
2022-12-18T07:20:45.026Z,-7.77
2022-12-18T07:23:14.469Z,-8.00
2022-12-18T07:25:41.357Z,-7.82
2022-12-18T07:28:10.604Z,-7.62
2022-12-18T07:30:41.363Z,-7.41
2022-12-18T07:33:08.901Z,-7.21
2022-12-18T07:35:35.598Z,-6.95
2022-12-18T07:38:02.518Z,-6.62
2022-12-18T07:40:31.006Z,-6.16
2022-12-18T07:42:57.910Z,-5.64
2022-12-18T07:45:24.968Z,-5.29
2022-12-18T07:47:52.244Z,-5.06
2022-12-18T07:50:19.270Z,-4.94
2022-12-18T07:52:46.245Z,-4.71
2022-12-18T07:55:13.012Z,-4.67
2022-12-18T07:57:50.431Z,-4.89
2022-12-18T08:00:18.876Z,-5.31
2022-12-18T08:02:45.838Z,-5.13
2022-12-18T08:05:13.058Z,-4.68
2022-12-18T08:07:40.321Z,-4.34
2022-12-18T08:10:08.689Z,-4.03
2022-12-18T08:12:35.942Z,-3.60
2022-12-18T08:15:05.005Z,-3.25
2022-12-18T08:17:33.043Z,-2.87
2022-12-18T08:19:59.800Z,-2.42
2022-12-18T08:22:26.893Z,-1.92
2022-12-18T08:24:53.994Z,-1.57
2022-12-18T08:27:28.771Z,-1.32
2022-12-18T08:29:56.417Z,-0.89
2022-12-18T08:32:25.439Z,-0.44
2022-12-18T08:34:52.356Z,-0.15
2022-12-18T08:37:19.303Z,0.16
2022-12-18T08:39:46.125Z,0.48
2022-12-18T08:42:13.170Z,0.64
2022-12-18T08:44:40.164Z,0.83
2022-12-18T08:47:08.062Z,1.23
2022-12-18T08:49:36.617Z,1.36
2022-12-18T08:52:04.334Z,1.82
2022-12-18T08:54:31.261Z,2.03
2022-12-18T08:56:58.083Z,2.22
2022-12-18T08:59:24.891Z,2.22
2022-12-18T09:01:54.259Z,2.26
2022-12-18T09:04:21.172Z,2.63
2022-12-18T09:06:50.516Z,3.02
2022-12-18T09:09:17.634Z,3.32
2022-12-18T09:11:44.461Z,3.54
2022-12-18T09:14:11.566Z,3.78
2022-12-18T09:16:40.103Z,4.13
2022-12-18T09:19:07.478Z,4.62
2022-12-18T09:21:37.101Z,4.04
2022-12-18T09:24:08.011Z,4.35
2022-12-18T09:26:36.598Z,4.16
2022-12-18T09:29:04.015Z,3.25
2022-12-18T09:31:31.039Z,3.02
2022-12-18T09:33:58.231Z,1.93
2022-12-18T09:36:25.123Z,1.36
2022-12-18T09:38:52.166Z,1.69
2022-12-18T09:41:41.700Z,1.24
2022-12-18T09:44:21.282Z,0.72
2022-12-18T09:47:01.461Z,0.16
2022-12-18T09:49:34.195Z,-0.26
2022-12-18T09:52:09.475Z,-0.46
2022-12-18T09:54:41.302Z,-0.53
2022-12-18T09:57:16.051Z,-0.72
2022-12-18T09:59:47.458Z,-0.78
2022-12-18T10:02:18.142Z,-0.70
2022-12-18T10:04:56.064Z,-0.73
2022-12-18T10:07:41.257Z,-0.68
2022-12-18T10:10:20.673Z,-0.37
2022-12-18T10:13:04.791Z,0.00
2022-12-18T10:15:40.980Z,-0.02
2022-12-18T10:18:30.283Z,-0.02
2022-12-18T10:21:07.873Z,0.18
2022-12-18T10:23:52.741Z,0.46
2022-12-18T10:26:19.809Z,1.05
2022-12-18T10:28:51.992Z,1.92
2022-12-18T10:31:24.890Z,2.35
2022-12-18T10:33:54.047Z,4.12
2022-12-18T10:36:21.842Z,5.34
2022-12-18T10:38:50.643Z,4.96
2022-12-18T10:41:29.360Z,4.29
2022-12-18T10:46:56.383Z,3.81
2022-12-18T10:49:27.813Z,4.10
2022-12-18T10:52:13.584Z,4.00
2022-12-18T10:54:41.324Z,4.76
2022-12-18T10:57:35.208Z,5.66
2022-12-18T11:00:26.253Z,6.00
2022-12-18T11:02:55.295Z,6.30
2022-12-18T11:05:30.072Z,6.27
2022-12-18T11:07:58.413Z,6.45
2022-12-18T11:10:32.388Z,6.42
2022-12-18T11:13:13.363Z,5.85
2022-12-18T11:15:42.432Z,4.60
2022-12-18T11:18:21.196Z,3.58
2022-12-18T11:20:58.480Z,1.98
2022-12-18T11:23:26.944Z,2.73
2022-12-18T11:25:58.606Z,2.47
2022-12-18T11:28:47.301Z,1.56
2022-12-18T11:31:25.521Z,1.94
2022-12-18T11:34:27.927Z,2.28
2022-12-18T11:36:53.358Z,3.27
2022-12-18T11:39:32.487Z,3.29
2022-12-18T11:42:13.320Z,2.38
2022-12-18T11:44:49.430Z,1.39
2022-12-18T11:47:39.766Z,1.31
2022-12-18T11:50:22.505Z,2.31
2022-12-18T11:52:55.643Z,2.83
2022-12-18T11:55:40.757Z,2.03
2022-12-18T11:58:31.561Z,1.67
2022-12-18T12:01:16.406Z,2.58
2022-12-18T12:04:20.458Z,2.91
2022-12-18T12:07:05.699Z,2.55
2022-12-18T12:09:47.244Z,2.67
2022-12-18T12:12:37.566Z,2.39
2022-12-18T12:15:18.195Z,1.99
2022-12-18T12:17:57.968Z,1.28
2022-12-18T12:20:46.846Z,1.31
2022-12-18T12:23:31.157Z,0.90
2022-12-18T12:26:05.224Z,1.37
2022-12-18T12:28:57.202Z,1.77
2022-12-18T12:31:46.526Z,2.12
2022-12-18T12:34:22.904Z,1.98
2022-12-18T12:37:11.883Z,2.22
2022-12-18T12:39:45.295Z,2.08
2022-12-18T12:42:32.036Z,2.19
2022-12-18T12:45:06.686Z,2.18
2022-12-18T12:47:43.177Z,2.62
2022-12-18T12:50:19.942Z,3.09
2022-12-18T12:52:55.388Z,3.02
2022-12-18T12:55:27.664Z,3.08
2022-12-18T12:58:09.279Z,2.24
2022-12-18T13:00:48.906Z,1.74
2022-12-18T13:03:40.757Z,1.49
2022-12-18T13:06:18.311Z,1.34
2022-12-18T13:09:00.745Z,1.23
2022-12-18T13:11:44.701Z,1.55
2022-12-18T13:14:24.690Z,1.81
2022-12-18T13:16:52.572Z,1.44
2022-12-18T13:19:24.697Z,0.97
2022-12-18T13:21:55.855Z,0.80
2022-12-18T13:24:28.785Z,0.70
2022-12-18T13:26:57.638Z,0.34
2022-12-18T13:29:43.746Z,0.17
2022-12-18T13:32:23.980Z,0.04
2022-12-18T13:35:40.014Z,0.16
2022-12-18T13:38:24.005Z,0.53
2022-12-18T13:40:57.235Z,0.73
2022-12-18T13:43:33.272Z,0.89
2022-12-18T13:46:04.295Z,0.67
2022-12-18T13:48:37.141Z,0.11
2022-12-18T13:51:08.382Z,-0.11
2022-12-18T13:53:44.889Z,-0.04
2022-12-18T13:56:17.506Z,-0.01
2022-12-18T13:58:46.352Z,-0.03
2022-12-18T14:01:23.844Z,-0.02
2022-12-18T14:03:51.241Z,-0.03
2022-12-18T14:06:18.510Z,-0.06
2022-12-18T14:08:47.263Z,-0.15
2022-12-18T14:11:23.890Z,-0.20
2022-12-18T14:13:54.764Z,-0.29
2022-12-18T14:16:23.044Z,-0.27
2022-12-18T14:18:55.196Z,-0.29
2022-12-18T14:21:28.732Z,-0.44
2022-12-18T14:24:13.067Z,-0.57
2022-12-18T14:26:40.260Z,-0.55
2022-12-18T14:29:25.177Z,-0.59
2022-12-18T14:32:17.569Z,-0.60
2022-12-18T14:34:47.143Z,-0.67
2022-12-18T14:37:16.316Z,-0.69
2022-12-18T14:39:55.104Z,-0.65
2022-12-18T14:42:22.073Z,-0.67
2022-12-18T14:45:13.072Z,-0.72
2022-12-18T14:47:37.613Z,-0.73
2022-12-18T14:50:14.415Z,-0.82
2022-12-18T14:52:41.504Z,-0.76
2022-12-18T14:55:18.406Z,-0.85
2022-12-18T14:57:49.569Z,-0.87
2022-12-18T15:00:22.832Z,-0.92
2022-12-18T15:02:55.939Z,-0.96
2022-12-18T15:05:28.970Z,-1.04
2022-12-18T15:08:00.491Z,-1.03
2022-12-18T15:10:30.493Z,-1.08
2022-12-18T15:13:17.501Z,-1.13
2022-12-18T15:15:49.856Z,-1.13
2022-12-18T15:18:20.436Z,-1.13
2022-12-18T15:20:51.177Z,-1.20
2022-12-18T15:23:23.125Z,-1.17
2022-12-18T15:25:58.801Z,-1.17
2022-12-18T15:28:32.144Z,-1.21
2022-12-18T15:31:29.852Z,-1.29
2022-12-18T15:34:12.583Z,-1.38
2022-12-18T15:36:39.995Z,-1.37
2022-12-18T15:39:07.088Z,-1.37
2022-12-18T15:41:36.686Z,-1.39
2022-12-18T15:44:22.589Z,-1.47
2022-12-18T15:46:50.680Z,-1.49
2022-12-18T15:49:17.580Z,-1.46
2022-12-18T15:51:44.864Z,-1.47
2022-12-18T15:54:15.865Z,-1.56
2022-12-18T15:56:44.962Z,-1.52
2022-12-18T15:59:15.626Z,-1.46
2022-12-18T16:01:46.140Z,-1.49
2022-12-18T16:04:17.205Z,-1.61
2022-12-18T16:07:13.193Z,-1.75
2022-12-18T16:09:31.344Z,-1.82
2022-12-18T16:11:58.748Z,-1.86
2022-12-18T16:14:28.817Z,-1.87
2022-12-18T16:16:58.561Z,-1.90
2022-12-18T16:19:28.026Z,-1.91
2022-12-18T16:21:58.545Z,-1.93
2022-12-18T16:24:29.443Z,-1.96
2022-12-18T16:27:00.111Z,-1.98
2022-12-18T16:29:29.566Z,-2.07
2022-12-18T16:31:56.925Z,-2.12
2022-12-18T16:34:28.733Z,-2.20
2022-12-18T16:37:01.695Z,-2.24
2022-12-18T16:39:32.267Z,-2.27
2022-12-18T16:41:59.136Z,-2.32
2022-12-18T16:44:27.685Z,-2.29
2022-12-18T16:46:54.556Z,-2.30
2022-12-18T16:49:22.038Z,-2.18
2022-12-18T16:51:50.166Z,-2.23
2022-12-18T16:54:20.033Z,-2.18
2022-12-18T16:56:47.388Z,-2.16
2022-12-18T16:59:14.161Z,-2.17
2022-12-18T17:01:41.513Z,-2.11
2022-12-18T17:04:09.662Z,-2.12
2022-12-18T17:06:41.791Z,-2.09
2022-12-18T17:09:14.621Z,-2.08
2022-12-18T17:11:41.800Z,-2.09
2022-12-18T17:14:11.074Z,-2.09
2022-12-18T17:16:37.966Z,-2.07
2022-12-18T17:19:09.776Z,-2.10
2022-12-18T17:21:40.473Z,-2.12
2022-12-18T17:24:07.994Z,-2.19
2022-12-18T17:26:37.529Z,-2.21
2022-12-18T17:29:04.413Z,-2.17
2022-12-18T17:31:32.613Z,-2.11
2022-12-18T17:34:02.438Z,-2.10
2022-12-18T17:36:31.709Z,-2.09
2022-12-18T17:39:11.041Z,-2.05
2022-12-18T17:41:44.465Z,-2.09
2022-12-18T17:44:11.423Z,-2.20
2022-12-18T17:46:38.274Z,-2.14
2022-12-18T17:49:07.499Z,-2.16
2022-12-18T17:55:20.845Z,-2.13
2022-12-18T17:57:51.982Z,-2.16
2022-12-18T18:00:39.486Z,-2.11
2022-12-18T18:12:21.763Z,-2.07
2022-12-18T18:22:23.049Z,-2.13
2022-12-18T18:25:31.325Z,-2.08
2022-12-18T18:27:58.376Z,-2.09
2022-12-18T18:30:33.407Z,-2.10
2022-12-18T18:33:02.214Z,-2.02
2022-12-18T18:35:52.809Z,-2.05
2022-12-18T18:38:16.517Z,-2.05
2022-12-18T18:40:43.380Z,-2.05
2022-12-18T18:43:10.514Z,-2.06
2022-12-18T18:45:38.802Z,-2.07
2022-12-18T18:48:12.636Z,-2.11
2022-12-18T18:50:43.551Z,-2.08
2022-12-18T18:53:10.374Z,-2.15
2022-12-18T18:55:37.235Z,-2.05
2022-12-18T18:58:04.262Z,-1.97
2022-12-18T19:00:32.888Z,-1.96
2022-12-18T19:03:01.385Z,-1.93
2022-12-18T19:05:31.105Z,-1.91
2022-12-18T19:07:58.022Z,-1.93
2022-12-18T19:10:25.119Z,-1.96
2022-12-18T19:12:52.145Z,-2.04
2022-12-18T19:15:19.193Z,-1.98
2022-12-18T19:17:47.430Z,-1.94
2022-12-18T19:20:21.581Z,-1.94
2022-12-18T19:22:55.111Z,-1.92
2022-12-18T19:25:29.928Z,-1.90
2022-12-18T19:28:06.974Z,-1.84
2022-12-18T19:30:39.108Z,-1.82
2022-12-18T19:33:26.781Z,-1.82
2022-12-18T19:35:54.642Z,-1.77
2022-12-18T19:38:21.812Z,-1.80
2022-12-18T19:40:53.155Z,-1.70
2022-12-18T19:43:20.190Z,-1.70
2022-12-18T19:45:54.935Z,-1.67
2022-12-18T19:48:21.852Z,-1.71
2022-12-18T19:50:48.848Z,-1.70
2022-12-18T19:53:17.137Z,-1.77
2022-12-18T19:55:45.861Z,-1.69
2022-12-18T19:58:15.304Z,-1.78
2022-12-18T20:00:42.426Z,-1.79
2022-12-18T20:03:25.964Z,-1.81
2022-12-18T20:06:13.641Z,-1.76
2022-12-18T20:08:42.458Z,-1.71
2022-12-18T20:11:10.616Z,-1.67
2022-12-18T20:13:40.567Z,-1.63
2022-12-18T20:16:09.298Z,-1.66
2022-12-18T20:18:37.108Z,-1.69
2022-12-18T20:21:13.841Z,-1.71
2022-12-18T20:23:57.778Z,-1.62
2022-12-18T20:26:25.043Z,-1.60
2022-12-18T20:29:22.419Z,-1.56
2022-12-18T20:32:07.640Z,-1.49
2022-12-18T20:34:50.818Z,-1.48
2022-12-18T20:37:21.431Z,-1.51
2022-12-18T20:40:42.242Z,-1.46
2022-12-18T20:43:10.336Z,-1.40
2022-12-18T20:45:39.348Z,-1.28
2022-12-18T20:48:08.421Z,-1.21
2022-12-18T20:50:35.804Z,-1.17
2022-12-18T20:53:02.769Z,-1.12
2022-12-18T20:55:31.013Z,-1.09
2022-12-18T20:57:58.371Z,-1.11
2022-12-18T21:00:25.313Z,-1.26
2022-12-18T21:02:52.406Z,-1.23
2022-12-18T21:05:24.145Z,-1.25
2022-12-18T21:07:53.959Z,-1.27
2022-12-18T21:10:40.439Z,-1.29
2022-12-18T21:13:11.665Z,-1.26
2022-12-18T21:21:26.897Z,-1.24
2022-12-18T21:24:04.223Z,-1.23
2022-12-18T21:26:31.603Z,-1.19
2022-12-18T21:29:03.185Z,-1.24
2022-12-18T21:31:38.480Z,-1.25
2022-12-18T21:34:07.081Z,-1.23
2022-12-18T21:36:35.138Z,-1.18
2022-12-18T21:39:02.422Z,-1.15
2022-12-18T21:41:29.363Z,-1.16
2022-12-18T21:43:56.299Z,-1.15
2022-12-18T21:46:24.590Z,-1.15
2022-12-18T21:48:51.493Z,-1.13
2022-12-18T21:51:18.380Z,-1.19
2022-12-18T21:53:45.258Z,-1.14
2022-12-18T21:56:15.071Z,-1.12
2022-12-18T21:58:56.769Z,-1.11
2022-12-18T22:01:26.078Z,-1.05
2022-12-18T22:04:03.706Z,-1.09
2022-12-18T22:06:30.507Z,-1.08
2022-12-18T22:08:57.565Z,-1.09
2022-12-18T22:11:24.743Z,-1.05
2022-12-18T22:13:53.473Z,-1.02
2022-12-18T22:16:20.628Z,-1.00
2022-12-18T22:18:48.984Z,-1.02
2022-12-18T22:21:29.027Z,-1.07
2022-12-18T22:23:59.776Z,-1.06
2022-12-18T22:26:33.825Z,-1.09
2022-12-18T22:29:05.096Z,-1.08
2022-12-18T22:31:31.976Z,-1.11
2022-12-18T22:34:00.975Z,-1.11
2022-12-18T22:36:55.858Z,-1.15
2022-12-18T22:39:25.963Z,-1.19
2022-12-18T22:41:56.338Z,-1.19
2022-12-18T22:44:23.254Z,-1.14
2022-12-18T22:47:05.906Z,-1.10
2022-12-18T22:49:36.648Z,-1.07
2022-12-18T22:52:05.687Z,-1.11
2022-12-18T22:54:33.421Z,-1.11
2022-12-18T22:57:01.309Z,-1.08
2022-12-18T22:59:28.891Z,-1.03
2022-12-18T23:01:59.185Z,-0.97
2022-12-18T23:04:27.380Z,-0.92
2022-12-18T23:06:57.244Z,-0.93
2022-12-18T23:09:23.997Z,-0.89
2022-12-18T23:11:51.352Z,-0.83
2022-12-18T23:14:18.173Z,-0.80
2022-12-18T23:16:45.242Z,-0.76
2022-12-18T23:19:14.171Z,-0.76
2022-12-18T23:21:41.102Z,-0.74
2022-12-18T23:24:10.334Z,-0.71
2022-12-18T23:26:37.434Z,-0.72
2022-12-18T23:29:05.713Z,-0.78
2022-12-18T23:31:35.531Z,-0.80
2022-12-18T23:34:04.149Z,-0.76
2022-12-18T23:36:35.834Z,-0.71
2022-12-18T23:39:28.071Z,-0.72
2022-12-18T23:41:56.271Z,-0.65
2022-12-18T23:44:23.507Z,-0.58
2022-12-18T23:46:50.561Z,-0.48
2022-12-18T23:49:17.627Z,-0.42
2022-12-18T23:51:44.908Z,-0.44
2022-12-18T23:54:11.978Z,-0.41
2022-12-18T23:56:40.236Z,-0.43
2022-12-18T23:59:07.358Z,-0.42
